sensor_id;sensor_type;location;lat;lon;timestamp;P1;durP1;ratioP1;P2;durP2;ratioP2
6828;SDS011;17930;48.592;8.868;2023-09-19T00:00:06;3.03;;;1.23;;
6828;SDS011;17930;48.592;8.868;2023-09-19T00:02:33;2.50;;;1.30;;
6828;SDS011;17930;48.592;8.868;2023-09-19T00:05:02;1.60;;;1.27;;
6828;SDS011;17930;48.592;8.868;2023-09-19T00:07:30;2.13;;;1.53;;
6828;SDS011;17930;48.592;8.868;2023-09-19T00:09:57;1.90;;;1.47;;
6828;SDS011;17930;48.592;8.868;2023-09-19T00:12:23;3.43;;;1.30;;
6828;SDS011;17930;48.592;8.868;2023-09-19T00:14:52;1.80;;;1.33;;
6828;SDS011;17930;48.592;8.868;2023-09-19T00:17:18;2.90;;;1.20;;
6828;SDS011;17930;48.592;8.868;2023-09-19T00:19:45;3.23;;;1.30;;
6828;SDS011;17930;48.592;8.868;2023-09-19T00:22:16;2.37;;;1.50;;
6828;SDS011;17930;48.592;8.868;2023-09-19T00:24:44;3.40;;;1.10;;
6828;SDS011;17930;48.592;8.868;2023-09-19T00:27:11;3.33;;;1.20;;
6828;SDS011;17930;48.592;8.868;2023-09-19T00:29:37;1.20;;;0.90;;
6828;SDS011;17930;48.592;8.868;2023-09-19T00:32:06;1.57;;;1.30;;
6828;SDS011;17930;48.592;8.868;2023-09-19T00:34:34;3.33;;;1.53;;
6828;SDS011;17930;48.592;8.868;2023-09-19T00:37:00;2.10;;;1.37;;
6828;SDS011;17930;48.592;8.868;2023-09-19T00:39:27;2.07;;;1.20;;
6828;SDS011;17930;48.592;8.868;2023-09-19T00:41:56;2.23;;;1.30;;
6828;SDS011;17930;48.592;8.868;2023-09-19T00:44:23;3.27;;;1.20;;
6828;SDS011;17930;48.592;8.868;2023-09-19T00:46:49;1.83;;;1.27;;
6828;SDS011;17930;48.592;8.868;2023-09-19T00:49:18;1.93;;;1.33;;
6828;SDS011;17930;48.592;8.868;2023-09-19T00:51:47;2.33;;;1.40;;
6828;SDS011;17930;48.592;8.868;2023-09-19T00:54:15;1.60;;;0.97;;
6828;SDS011;17930;48.592;8.868;2023-09-19T00:56:45;2.93;;;1.10;;
6828;SDS011;17930;48.592;8.868;2023-09-19T00:59:14;2.77;;;1.00;;
6828;SDS011;17930;48.592;8.868;2023-09-19T01:01:40;1.33;;;0.90;;
6828;SDS011;17930;48.592;8.868;2023-09-19T01:04:08;1.50;;;1.10;;
6828;SDS011;17930;48.592;8.868;2023-09-19T01:06:36;3.77;;;1.10;;
6828;SDS011;17930;48.592;8.868;2023-09-19T01:09:04;1.40;;;1.20;;
6828;SDS011;17930;48.592;8.868;2023-09-19T01:11:33;1.70;;;1.10;;
6828;SDS011;17930;48.592;8.868;2023-09-19T01:14:07;2.20;;;1.10;;
6828;SDS011;17930;48.592;8.868;2023-09-19T01:16:45;2.27;;;1.10;;
6828;SDS011;17930;48.592;8.868;2023-09-19T01:19:35;1.60;;;1.00;;
6828;SDS011;17930;48.592;8.868;2023-09-19T01:22:32;1.50;;;1.03;;
6828;SDS011;17930;48.592;8.868;2023-09-19T01:25:20;2.23;;;1.00;;
6828;SDS011;17930;48.592;8.868;2023-09-19T01:28:07;2.33;;;1.07;;
6828;SDS011;17930;48.592;8.868;2023-09-19T01:30:48;1.70;;;0.90;;
6828;SDS011;17930;48.592;8.868;2023-09-19T01:33:19;1.00;;;0.90;;
6828;SDS011;17930;48.592;8.868;2023-09-19T01:35:46;1.17;;;0.87;;
6828;SDS011;17930;48.592;8.868;2023-09-19T01:38:14;1.60;;;1.10;;
6828;SDS011;17930;48.592;8.868;2023-09-19T01:40:42;1.23;;;0.70;;
6828;SDS011;17930;48.592;8.868;2023-09-19T01:43:10;2.50;;;1.03;;
6828;SDS011;17930;48.592;8.868;2023-09-19T01:45:45;1.53;;;1.00;;
6828;SDS011;17930;48.592;8.868;2023-09-19T01:48:19;2.73;;;1.27;;
6828;SDS011;17930;48.592;8.868;2023-09-19T01:50:54;1.03;;;0.90;;
6828;SDS011;17930;48.592;8.868;2023-09-19T01:53:26;1.00;;;0.90;;
6828;SDS011;17930;48.592;8.868;2023-09-19T01:55:55;1.63;;;1.00;;
6828;SDS011;17930;48.592;8.868;2023-09-19T01:58:26;1.10;;;1.00;;
6828;SDS011;17930;48.592;8.868;2023-09-19T02:01:00;1.10;;;0.83;;
6828;SDS011;17930;48.592;8.868;2023-09-19T02:03:31;0.80;;;0.70;;
6828;SDS011;17930;48.592;8.868;2023-09-19T02:05:59;2.60;;;0.97;;
6828;SDS011;17930;48.592;8.868;2023-09-19T02:08:26;1.77;;;1.03;;
6828;SDS011;17930;48.592;8.868;2023-09-19T02:10:54;2.57;;;1.10;;
6828;SDS011;17930;48.592;8.868;2023-09-19T02:13:22;1.20;;;0.90;;
6828;SDS011;17930;48.592;8.868;2023-09-19T02:15:50;1.10;;;0.90;;
6828;SDS011;17930;48.592;8.868;2023-09-19T02:18:17;2.57;;;1.07;;
6828;SDS011;17930;48.592;8.868;2023-09-19T02:20:45;2.87;;;1.30;;
6828;SDS011;17930;48.592;8.868;2023-09-19T02:23:12;1.10;;;0.90;;
6828;SDS011;17930;48.592;8.868;2023-09-19T02:25:40;1.67;;;1.50;;
6828;SDS011;17930;48.592;8.868;2023-09-19T02:28:09;3.30;;;1.20;;
6828;SDS011;17930;48.592;8.868;2023-09-19T02:30:36;3.57;;;1.57;;
6828;SDS011;17930;48.592;8.868;2023-09-19T02:33:03;2.90;;;1.43;;
6828;SDS011;17930;48.592;8.868;2023-09-19T02:35:32;1.97;;;1.10;;
6828;SDS011;17930;48.592;8.868;2023-09-19T02:38:01;1.80;;;1.47;;
6828;SDS011;17930;48.592;8.868;2023-09-19T02:40:31;2.00;;;1.33;;
6828;SDS011;17930;48.592;8.868;2023-09-19T02:43:01;4.10;;;1.77;;
6828;SDS011;17930;48.592;8.868;2023-09-19T02:45:28;2.53;;;1.17;;
6828;SDS011;17930;48.592;8.868;2023-09-19T02:47:55;1.90;;;1.33;;
6828;SDS011;17930;48.592;8.868;2023-09-19T02:50:23;3.70;;;1.67;;
6828;SDS011;17930;48.592;8.868;2023-09-19T02:52:51;1.87;;;1.40;;
6828;SDS011;17930;48.592;8.868;2023-09-19T02:55:19;6.77;;;1.90;;
6828;SDS011;17930;48.592;8.868;2023-09-19T02:57:47;3.10;;;1.40;;
6828;SDS011;17930;48.592;8.868;2023-09-19T03:00:14;1.93;;;1.40;;
6828;SDS011;17930;48.592;8.868;2023-09-19T03:02:42;1.80;;;1.20;;
6828;SDS011;17930;48.592;8.868;2023-09-19T03:05:09;2.77;;;1.47;;
6828;SDS011;17930;48.592;8.868;2023-09-19T03:07:37;2.10;;;1.57;;
6828;SDS011;17930;48.592;8.868;2023-09-19T03:10:06;3.50;;;1.40;;
6828;SDS011;17930;48.592;8.868;2023-09-19T03:12:33;3.33;;;1.67;;
6828;SDS011;17930;48.592;8.868;2023-09-19T03:15:00;3.37;;;1.67;;
6828;SDS011;17930;48.592;8.868;2023-09-19T03:17:27;3.10;;;1.70;;
6828;SDS011;17930;48.592;8.868;2023-09-19T03:19:53;3.33;;;1.90;;
6828;SDS011;17930;48.592;8.868;2023-09-19T03:22:20;4.73;;;1.90;;
6828;SDS011;17930;48.592;8.868;2023-09-19T03:24:47;2.50;;;1.50;;
6828;SDS011;17930;48.592;8.868;2023-09-19T03:27:15;1.50;;;1.40;;
6828;SDS011;17930;48.592;8.868;2023-09-19T03:29:42;3.07;;;1.53;;
6828;SDS011;17930;48.592;8.868;2023-09-19T03:32:09;3.57;;;1.53;;
6828;SDS011;17930;48.592;8.868;2023-09-19T03:34:36;1.80;;;1.43;;
6828;SDS011;17930;48.592;8.868;2023-09-19T03:37:09;1.83;;;1.47;;
6828;SDS011;17930;48.592;8.868;2023-09-19T03:39:36;2.90;;;1.57;;
6828;SDS011;17930;48.592;8.868;2023-09-19T03:42:03;5.80;;;1.77;;
6828;SDS011;17930;48.592;8.868;2023-09-19T03:44:31;1.80;;;1.70;;
6828;SDS011;17930;48.592;8.868;2023-09-19T03:46:58;2.97;;;2.00;;
6828;SDS011;17930;48.592;8.868;2023-09-19T03:49:25;2.23;;;1.60;;
6828;SDS011;17930;48.592;8.868;2023-09-19T03:51:51;3.17;;;1.90;;
6828;SDS011;17930;48.592;8.868;2023-09-19T03:54:18;1.50;;;1.40;;
6828;SDS011;17930;48.592;8.868;2023-09-19T03:56:45;5.00;;;1.90;;
6828;SDS011;17930;48.592;8.868;2023-09-19T03:59:11;2.63;;;1.63;;
6828;SDS011;17930;48.592;8.868;2023-09-19T04:01:40;2.33;;;1.93;;
6828;SDS011;17930;48.592;8.868;2023-09-19T04:04:08;2.70;;;2.00;;
6828;SDS011;17930;48.592;8.868;2023-09-19T04:06:34;3.20;;;1.70;;
6828;SDS011;17930;48.592;8.868;2023-09-19T04:09:01;2.50;;;1.60;;
6828;SDS011;17930;48.592;8.868;2023-09-19T04:11:29;2.57;;;1.40;;
6828;SDS011;17930;48.592;8.868;2023-09-19T04:13:56;3.13;;;1.40;;
6828;SDS011;17930;48.592;8.868;2023-09-19T04:16:22;2.33;;;1.63;;
6828;SDS011;17930;48.592;8.868;2023-09-19T04:18:50;3.03;;;1.43;;
6828;SDS011;17930;48.592;8.868;2023-09-19T04:21:17;1.80;;;1.43;;
6828;SDS011;17930;48.592;8.868;2023-09-19T04:23:45;2.17;;;1.43;;
6828;SDS011;17930;48.592;8.868;2023-09-19T04:26:11;1.67;;;1.50;;
6828;SDS011;17930;48.592;8.868;2023-09-19T04:28:38;2.37;;;1.60;;
6828;SDS011;17930;48.592;8.868;2023-09-19T04:31:06;1.47;;;1.30;;
6828;SDS011;17930;48.592;8.868;2023-09-19T04:33:34;3.73;;;1.60;;
6828;SDS011;17930;48.592;8.868;2023-09-19T04:36:02;5.00;;;2.03;;
6828;SDS011;17930;48.592;8.868;2023-09-19T04:38:30;1.87;;;1.50;;
6828;SDS011;17930;48.592;8.868;2023-09-19T04:40:57;1.60;;;1.50;;
6828;SDS011;17930;48.592;8.868;2023-09-19T04:43:24;2.87;;;1.43;;
6828;SDS011;17930;48.592;8.868;2023-09-19T04:45:52;2.30;;;1.43;;
6828;SDS011;17930;48.592;8.868;2023-09-19T04:48:21;2.97;;;1.40;;
6828;SDS011;17930;48.592;8.868;2023-09-19T04:50:49;2.43;;;1.47;;
6828;SDS011;17930;48.592;8.868;2023-09-19T04:53:17;4.03;;;1.50;;
6828;SDS011;17930;48.592;8.868;2023-09-19T04:55:49;3.83;;;1.67;;
6828;SDS011;17930;48.592;8.868;2023-09-19T04:58:16;2.77;;;1.47;;
6828;SDS011;17930;48.592;8.868;2023-09-19T05:00:44;4.07;;;1.53;;
6828;SDS011;17930;48.592;8.868;2023-09-19T05:03:11;2.63;;;1.57;;
6828;SDS011;17930;48.592;8.868;2023-09-19T05:05:38;2.23;;;1.33;;
6828;SDS011;17930;48.592;8.868;2023-09-19T05:08:06;4.63;;;1.93;;
6828;SDS011;17930;48.592;8.868;2023-09-19T05:10:35;2.57;;;1.50;;
6828;SDS011;17930;48.592;8.868;2023-09-19T05:13:03;1.80;;;1.57;;
6828;SDS011;17930;48.592;8.868;2023-09-19T05:15:30;2.27;;;1.30;;
6828;SDS011;17930;48.592;8.868;2023-09-19T05:17:57;3.17;;;1.67;;
6828;SDS011;17930;48.592;8.868;2023-09-19T05:20:24;2.70;;;1.83;;
6828;SDS011;17930;48.592;8.868;2023-09-19T05:22:57;2.47;;;1.33;;
6828;SDS011;17930;48.592;8.868;2023-09-19T05:25:27;3.50;;;1.60;;
6828;SDS011;17930;48.592;8.868;2023-09-19T05:27:56;1.63;;;1.40;;
6828;SDS011;17930;48.592;8.868;2023-09-19T05:30:24;3.97;;;1.57;;
6828;SDS011;17930;48.592;8.868;2023-09-19T05:32:52;3.73;;;1.50;;
6828;SDS011;17930;48.592;8.868;2023-09-19T05:35:20;3.77;;;1.60;;
6828;SDS011;17930;48.592;8.868;2023-09-19T05:37:47;4.73;;;2.10;;
6828;SDS011;17930;48.592;8.868;2023-09-19T05:40:16;2.67;;;1.83;;
6828;SDS011;17930;48.592;8.868;2023-09-19T05:42:43;4.80;;;1.90;;
6828;SDS011;17930;48.592;8.868;2023-09-19T05:45:11;2.83;;;1.67;;
6828;SDS011;17930;48.592;8.868;2023-09-19T05:47:39;2.30;;;1.60;;
6828;SDS011;17930;48.592;8.868;2023-09-19T05:50:16;2.43;;;1.70;;
6828;SDS011;17930;48.592;8.868;2023-09-19T05:52:51;1.63;;;1.47;;
6828;SDS011;17930;48.592;8.868;2023-09-19T05:55:18;3.13;;;2.10;;
6828;SDS011;17930;48.592;8.868;2023-09-19T05:57:49;2.90;;;2.03;;
6828;SDS011;17930;48.592;8.868;2023-09-19T06:00:18;3.50;;;1.90;;
6828;SDS011;17930;48.592;8.868;2023-09-19T06:02:49;1.93;;;1.60;;
6828;SDS011;17930;48.592;8.868;2023-09-19T06:05:17;3.00;;;1.60;;
6828;SDS011;17930;48.592;8.868;2023-09-19T06:07:43;3.10;;;1.43;;
6828;SDS011;17930;48.592;8.868;2023-09-19T06:10:11;2.10;;;1.40;;
6828;SDS011;17930;48.592;8.868;2023-09-19T06:12:37;2.27;;;1.60;;
6828;SDS011;17930;48.592;8.868;2023-09-19T06:15:04;2.33;;;1.90;;
6828;SDS011;17930;48.592;8.868;2023-09-19T06:17:35;2.13;;;1.20;;
6828;SDS011;17930;48.592;8.868;2023-09-19T06:20:03;3.90;;;1.53;;
6828;SDS011;17930;48.592;8.868;2023-09-19T06:22:36;1.90;;;1.50;;
6828;SDS011;17930;48.592;8.868;2023-09-19T06:25:03;1.80;;;1.40;;
6828;SDS011;17930;48.592;8.868;2023-09-19T06:27:30;1.53;;;1.10;;
6828;SDS011;17930;48.592;8.868;2023-09-19T06:29:57;1.97;;;1.00;;
6828;SDS011;17930;48.592;8.868;2023-09-19T06:32:26;1.87;;;1.10;;
6828;SDS011;17930;48.592;8.868;2023-09-19T06:34:55;3.83;;;2.43;;
6828;SDS011;17930;48.592;8.868;2023-09-19T06:37:26;1.77;;;1.60;;
6828;SDS011;17930;48.592;8.868;2023-09-19T06:39:53;1.70;;;1.20;;
6828;SDS011;17930;48.592;8.868;2023-09-19T06:42:19;1.87;;;1.20;;
6828;SDS011;17930;48.592;8.868;2023-09-19T06:44:48;1.43;;;1.00;;
6828;SDS011;17930;48.592;8.868;2023-09-19T06:47:14;1.37;;;1.10;;
6828;SDS011;17930;48.592;8.868;2023-09-19T06:49:42;1.37;;;1.20;;
6828;SDS011;17930;48.592;8.868;2023-09-19T06:52:10;1.50;;;1.30;;
6828;SDS011;17930;48.592;8.868;2023-09-19T06:54:37;2.10;;;1.10;;
6828;SDS011;17930;48.592;8.868;2023-09-19T06:57:05;1.47;;;1.00;;
6828;SDS011;17930;48.592;8.868;2023-09-19T06:59:35;3.17;;;1.27;;
6828;SDS011;17930;48.592;8.868;2023-09-19T07:02:02;1.27;;;1.17;;
6828;SDS011;17930;48.592;8.868;2023-09-19T07:04:31;2.23;;;1.00;;
6828;SDS011;17930;48.592;8.868;2023-09-19T07:06:58;1.07;;;0.90;;
6828;SDS011;17930;48.592;8.868;2023-09-19T07:09:26;1.23;;;1.10;;
6828;SDS011;17930;48.592;8.868;2023-09-19T07:11:53;1.40;;;0.90;;
6828;SDS011;17930;48.592;8.868;2023-09-19T07:14:20;2.03;;;0.93;;
6828;SDS011;17930;48.592;8.868;2023-09-19T07:16:47;3.27;;;1.20;;
6828;SDS011;17930;48.592;8.868;2023-09-19T07:19:17;2.87;;;1.10;;
6828;SDS011;17930;48.592;8.868;2023-09-19T07:21:44;1.30;;;1.10;;
6828;SDS011;17930;48.592;8.868;2023-09-19T07:24:12;2.37;;;1.10;;
6828;SDS011;17930;48.592;8.868;2023-09-19T07:26:40;1.50;;;1.00;;
6828;SDS011;17930;48.592;8.868;2023-09-19T07:29:07;3.03;;;1.73;;
6828;SDS011;17930;48.592;8.868;2023-09-19T07:31:34;1.93;;;1.47;;
6828;SDS011;17930;48.592;8.868;2023-09-19T07:34:00;3.77;;;1.70;;
6828;SDS011;17930;48.592;8.868;2023-09-19T07:36:29;2.13;;;1.57;;
6828;SDS011;17930;48.592;8.868;2023-09-19T07:38:55;2.23;;;1.10;;
6828;SDS011;17930;48.592;8.868;2023-09-19T07:41:23;1.53;;;1.10;;
6828;SDS011;17930;48.592;8.868;2023-09-19T07:43:52;2.93;;;1.50;;
6828;SDS011;17930;48.592;8.868;2023-09-19T07:46:19;1.20;;;1.10;;
6828;SDS011;17930;48.592;8.868;2023-09-19T07:48:47;1.07;;;0.93;;
6828;SDS011;17930;48.592;8.868;2023-09-19T07:51:14;3.47;;;1.20;;
6828;SDS011;17930;48.592;8.868;2023-09-19T07:53:41;1.53;;;1.10;;
6828;SDS011;17930;48.592;8.868;2023-09-19T07:56:08;1.87;;;1.00;;
6828;SDS011;17930;48.592;8.868;2023-09-19T07:58:38;1.73;;;1.00;;
6828;SDS011;17930;48.592;8.868;2023-09-19T08:01:07;3.00;;;1.13;;
6828;SDS011;17930;48.592;8.868;2023-09-19T08:03:35;1.27;;;0.80;;
6828;SDS011;17930;48.592;8.868;2023-09-19T08:06:06;1.70;;;1.10;;
6828;SDS011;17930;48.592;8.868;2023-09-19T08:08:33;2.60;;;1.10;;
6828;SDS011;17930;48.592;8.868;2023-09-19T08:11:02;1.30;;;1.10;;
6828;SDS011;17930;48.592;8.868;2023-09-19T08:13:36;1.77;;;1.00;;
6828;SDS011;17930;48.592;8.868;2023-09-19T08:16:03;1.30;;;1.00;;
6828;SDS011;17930;48.592;8.868;2023-09-19T08:18:31;3.03;;;1.37;;
6828;SDS011;17930;48.592;8.868;2023-09-19T08:20:59;1.43;;;1.07;;
6828;SDS011;17930;48.592;8.868;2023-09-19T08:23:26;1.27;;;1.00;;
6828;SDS011;17930;48.592;8.868;2023-09-19T08:25:55;4.10;;;1.10;;
6828;SDS011;17930;48.592;8.868;2023-09-19T08:28:22;1.30;;;1.10;;
6828;SDS011;17930;48.592;8.868;2023-09-19T08:30:49;2.20;;;1.43;;
6828;SDS011;17930;48.592;8.868;2023-09-19T08:33:16;2.97;;;1.13;;
6828;SDS011;17930;48.592;8.868;2023-09-19T08:35:44;1.87;;;1.30;;
6828;SDS011;17930;48.592;8.868;2023-09-19T08:38:11;2.13;;;1.10;;
6828;SDS011;17930;48.592;8.868;2023-09-19T08:40:39;1.40;;;0.83;;
6828;SDS011;17930;48.592;8.868;2023-09-19T08:43:07;1.30;;;1.00;;
6828;SDS011;17930;48.592;8.868;2023-09-19T08:45:34;1.60;;;0.90;;
6828;SDS011;17930;48.592;8.868;2023-09-19T08:48:05;1.23;;;1.00;;
6828;SDS011;17930;48.592;8.868;2023-09-19T08:50:49;2.87;;;1.27;;
6828;SDS011;17930;48.592;8.868;2023-09-19T08:53:20;2.40;;;1.10;;
6828;SDS011;17930;48.592;8.868;2023-09-19T08:55:53;2.10;;;1.13;;
6828;SDS011;17930;48.592;8.868;2023-09-19T08:58:21;2.47;;;1.30;;
6828;SDS011;17930;48.592;8.868;2023-09-19T09:00:53;1.73;;;1.10;;
6828;SDS011;17930;48.592;8.868;2023-09-19T09:03:20;1.50;;;1.13;;
6828;SDS011;17930;48.592;8.868;2023-09-19T09:05:51;2.00;;;1.23;;
6828;SDS011;17930;48.592;8.868;2023-09-19T09:08:18;1.87;;;1.10;;
6828;SDS011;17930;48.592;8.868;2023-09-19T09:10:46;1.87;;;1.10;;
6828;SDS011;17930;48.592;8.868;2023-09-19T09:13:13;1.50;;;0.90;;
6828;SDS011;17930;48.592;8.868;2023-09-19T09:15:42;3.53;;;1.37;;
6828;SDS011;17930;48.592;8.868;2023-09-19T09:18:10;2.60;;;1.00;;
6828;SDS011;17930;48.592;8.868;2023-09-19T09:20:36;2.87;;;1.20;;
6828;SDS011;17930;48.592;8.868;2023-09-19T09:23:05;1.77;;;1.10;;
6828;SDS011;17930;48.592;8.868;2023-09-19T09:25:47;3.33;;;1.37;;
6828;SDS011;17930;48.592;8.868;2023-09-19T09:28:20;2.27;;;1.17;;
6828;SDS011;17930;48.592;8.868;2023-09-19T09:30:48;1.53;;;1.30;;
6828;SDS011;17930;48.592;8.868;2023-09-19T09:33:18;2.10;;;1.23;;
6828;SDS011;17930;48.592;8.868;2023-09-19T09:35:48;2.60;;;1.30;;
6828;SDS011;17930;48.592;8.868;2023-09-19T09:38:18;1.60;;;1.10;;
6828;SDS011;17930;48.592;8.868;2023-09-19T09:40:47;1.77;;;1.20;;
6828;SDS011;17930;48.592;8.868;2023-09-19T09:43:28;2.10;;;1.10;;
6828;SDS011;17930;48.592;8.868;2023-09-19T09:49:05;1.97;;;1.30;;
6828;SDS011;17930;48.592;8.868;2023-09-19T09:51:44;2.23;;;1.20;;
6828;SDS011;17930;48.592;8.868;2023-09-19T09:54:15;1.40;;;1.20;;
6828;SDS011;17930;48.592;8.868;2023-09-19T09:56:54;1.50;;;1.20;;
6828;SDS011;17930;48.592;8.868;2023-09-19T10:02:12;2.10;;;1.23;;
6828;SDS011;17930;48.592;8.868;2023-09-19T10:04:39;3.53;;;1.50;;
6828;SDS011;17930;48.592;8.868;2023-09-19T10:07:26;1.63;;;1.10;;
6828;SDS011;17930;48.592;8.868;2023-09-19T10:09:59;2.43;;;1.30;;
6828;SDS011;17930;48.592;8.868;2023-09-19T10:12:41;2.93;;;1.70;;
6828;SDS011;17930;48.592;8.868;2023-09-19T10:15:11;3.53;;;1.30;;
6828;SDS011;17930;48.592;8.868;2023-09-19T10:17:42;3.50;;;1.33;;
6828;SDS011;17930;48.592;8.868;2023-09-19T10:20:12;3.50;;;1.30;;
6828;SDS011;17930;48.592;8.868;2023-09-19T10:23:04;2.20;;;1.20;;
6828;SDS011;17930;48.592;8.868;2023-09-19T10:25:36;1.70;;;1.23;;
6828;SDS011;17930;48.592;8.868;2023-09-19T10:28:05;1.77;;;1.00;;
6828;SDS011;17930;48.592;8.868;2023-09-19T10:30:36;1.47;;;1.10;;
6828;SDS011;17930;48.592;8.868;2023-09-19T10:33:04;1.40;;;1.10;;
6828;SDS011;17930;48.592;8.868;2023-09-19T10:35:32;2.13;;;1.20;;
6828;SDS011;17930;48.592;8.868;2023-09-19T10:38:00;4.37;;;1.40;;
6828;SDS011;17930;48.592;8.868;2023-09-19T10:40:28;1.33;;;0.90;;
6828;SDS011;17930;48.592;8.868;2023-09-19T10:43:00;1.93;;;1.17;;
6828;SDS011;17930;48.592;8.868;2023-09-19T10:45:32;1.70;;;1.10;;
6828;SDS011;17930;48.592;8.868;2023-09-19T10:48:00;2.13;;;1.17;;
6828;SDS011;17930;48.592;8.868;2023-09-19T10:50:29;1.47;;;1.03;;
6828;SDS011;17930;48.592;8.868;2023-09-19T10:52:59;1.67;;;1.13;;
6828;SDS011;17930;48.592;8.868;2023-09-19T10:55:30;1.23;;;1.07;;
6828;SDS011;17930;48.592;8.868;2023-09-19T10:58:02;2.60;;;1.20;;
6828;SDS011;17930;48.592;8.868;2023-09-19T11:00:49;2.53;;;1.30;;
6828;SDS011;17930;48.592;8.868;2023-09-19T11:03:18;1.40;;;1.13;;
6828;SDS011;17930;48.592;8.868;2023-09-19T11:06:07;2.40;;;1.30;;
6828;SDS011;17930;48.592;8.868;2023-09-19T11:11:39;1.77;;;1.10;;
6828;SDS011;17930;48.592;8.868;2023-09-19T11:23:19;2.13;;;1.10;;
6828;SDS011;17930;48.592;8.868;2023-09-19T11:25:52;1.70;;;1.07;;
6828;SDS011;17930;48.592;8.868;2023-09-19T11:28:27;1.67;;;0.90;;
6828;SDS011;17930;48.592;8.868;2023-09-19T11:30:59;1.50;;;1.00;;
6828;SDS011;17930;48.592;8.868;2023-09-19T11:40:25;2.20;;;1.20;;
6828;SDS011;17930;48.592;8.868;2023-09-19T11:42:53;0.97;;;0.90;;
6828;SDS011;17930;48.592;8.868;2023-09-19T11:48:28;1.80;;;1.00;;
6828;SDS011;17930;48.592;8.868;2023-09-19T11:50:55;2.00;;;1.00;;
6828;SDS011;17930;48.592;8.868;2023-09-19T11:53:24;1.60;;;1.07;;
6828;SDS011;17930;48.592;8.868;2023-09-19T11:56:01;2.23;;;0.83;;
6828;SDS011;17930;48.592;8.868;2023-09-19T11:58:35;6.43;;;1.40;;
6828;SDS011;17930;48.592;8.868;2023-09-19T12:01:05;3.90;;;1.37;;
6828;SDS011;17930;48.592;8.868;2023-09-19T12:03:39;1.87;;;1.20;;
6828;SDS011;17930;48.592;8.868;2023-09-19T12:06:11;1.60;;;1.00;;
6828;SDS011;17930;48.592;8.868;2023-09-19T12:08:40;1.87;;;1.10;;
6828;SDS011;17930;48.592;8.868;2023-09-19T12:11:12;1.00;;;0.90;;
6828;SDS011;17930;48.592;8.868;2023-09-19T12:13:41;2.30;;;0.90;;
6828;SDS011;17930;48.592;8.868;2023-09-19T12:16:13;1.53;;;1.00;;
6828;SDS011;17930;48.592;8.868;2023-09-19T12:18:43;1.20;;;1.10;;
6828;SDS011;17930;48.592;8.868;2023-09-19T12:21:21;2.10;;;1.20;;
6828;SDS011;17930;48.592;8.868;2023-09-19T12:23:59;1.90;;;1.00;;
6828;SDS011;17930;48.592;8.868;2023-09-19T12:26:38;1.93;;;1.20;;
6828;SDS011;17930;48.592;8.868;2023-09-19T12:29:10;3.17;;;1.13;;
6828;SDS011;17930;48.592;8.868;2023-09-19T12:31:46;1.43;;;1.07;;
6828;SDS011;17930;48.592;8.868;2023-09-19T12:34:20;3.37;;;1.03;;
6828;SDS011;17930;48.592;8.868;2023-09-19T12:36:48;5.87;;;1.70;;
6828;SDS011;17930;48.592;8.868;2023-09-19T12:39:24;3.27;;;1.27;;
6828;SDS011;17930;48.592;8.868;2023-09-19T12:41:52;3.27;;;1.50;;
6828;SDS011;17930;48.592;8.868;2023-09-19T12:44:20;3.80;;;1.30;;
6828;SDS011;17930;48.592;8.868;2023-09-19T12:46:50;1.23;;;1.03;;
6828;SDS011;17930;48.592;8.868;2023-09-19T12:49:21;1.60;;;1.07;;
6828;SDS011;17930;48.592;8.868;2023-09-19T12:51:48;1.47;;;1.07;;
6828;SDS011;17930;48.592;8.868;2023-09-19T12:54:16;2.30;;;1.37;;
6828;SDS011;17930;48.592;8.868;2023-09-19T12:56:43;4.27;;;1.20;;
6828;SDS011;17930;48.592;8.868;2023-09-19T12:59:13;1.30;;;1.20;;
6828;SDS011;17930;48.592;8.868;2023-09-19T13:01:40;2.20;;;1.00;;
6828;SDS011;17930;48.592;8.868;2023-09-19T13:04:12;1.63;;;1.10;;
6828;SDS011;17930;48.592;8.868;2023-09-19T13:06:44;1.17;;;1.07;;
6828;SDS011;17930;48.592;8.868;2023-09-19T13:09:14;3.00;;;1.20;;
6828;SDS011;17930;48.592;8.868;2023-09-19T13:11:41;1.73;;;0.97;;
6828;SDS011;17930;48.592;8.868;2023-09-19T13:14:19;1.77;;;0.90;;
6828;SDS011;17930;48.592;8.868;2023-09-19T13:16:57;1.33;;;1.10;;
6828;SDS011;17930;48.592;8.868;2023-09-19T13:19:41;1.53;;;1.20;;
6828;SDS011;17930;48.592;8.868;2023-09-19T13:25:05;1.93;;;1.30;;
6828;SDS011;17930;48.592;8.868;2023-09-19T13:27:39;2.13;;;1.17;;
6828;SDS011;17930;48.592;8.868;2023-09-19T13:30:07;1.20;;;1.00;;
6828;SDS011;17930;48.592;8.868;2023-09-19T13:32:37;2.20;;;0.90;;
6828;SDS011;17930;48.592;8.868;2023-09-19T13:35:06;1.60;;;1.10;;
6828;SDS011;17930;48.592;8.868;2023-09-19T13:37:34;1.20;;;1.03;;
6828;SDS011;17930;48.592;8.868;2023-09-19T13:40:02;2.10;;;1.10;;
6828;SDS011;17930;48.592;8.868;2023-09-19T13:42:30;1.10;;;0.97;;
6828;SDS011;17930;48.592;8.868;2023-09-19T13:44:57;1.93;;;1.10;;
6828;SDS011;17930;48.592;8.868;2023-09-19T13:47:24;1.17;;;1.00;;
6828;SDS011;17930;48.592;8.868;2023-09-19T13:49:52;1.70;;;1.30;;
6828;SDS011;17930;48.592;8.868;2023-09-19T13:52:18;3.33;;;1.17;;
6828;SDS011;17930;48.592;8.868;2023-09-19T13:54:47;1.40;;;1.00;;
6828;SDS011;17930;48.592;8.868;2023-09-19T13:57:15;2.00;;;0.97;;
6828;SDS011;17930;48.592;8.868;2023-09-19T13:59:44;1.93;;;1.00;;
6828;SDS011;17930;48.592;8.868;2023-09-19T14:02:10;3.27;;;1.23;;
6828;SDS011;17930;48.592;8.868;2023-09-19T14:04:39;0.83;;;0.83;;
6828;SDS011;17930;48.592;8.868;2023-09-19T14:07:06;1.43;;;1.20;;
6828;SDS011;17930;48.592;8.868;2023-09-19T14:09:33;0.97;;;0.83;;
6828;SDS011;17930;48.592;8.868;2023-09-19T14:12:00;3.00;;;1.03;;
6828;SDS011;17930;48.592;8.868;2023-09-19T14:14:28;2.70;;;1.50;;
6828;SDS011;17930;48.592;8.868;2023-09-19T14:16:55;1.50;;;1.00;;
6828;SDS011;17930;48.592;8.868;2023-09-19T14:19:22;1.00;;;0.90;;
6828;SDS011;17930;48.592;8.868;2023-09-19T14:21:48;1.23;;;1.03;;
6828;SDS011;17930;48.592;8.868;2023-09-19T14:24:17;0.93;;;0.77;;
6828;SDS011;17930;48.592;8.868;2023-09-19T14:26:44;3.03;;;1.00;;
6828;SDS011;17930;48.592;8.868;2023-09-19T14:29:11;1.47;;;1.03;;
6828;SDS011;17930;48.592;8.868;2023-09-19T14:31:39;3.93;;;1.20;;
6828;SDS011;17930;48.592;8.868;2023-09-19T14:34:07;1.50;;;0.90;;
6828;SDS011;17930;48.592;8.868;2023-09-19T14:36:35;1.67;;;1.00;;
6828;SDS011;17930;48.592;8.868;2023-09-19T14:39:04;2.53;;;0.97;;
6828;SDS011;17930;48.592;8.868;2023-09-19T14:41:31;1.43;;;0.90;;
6828;SDS011;17930;48.592;8.868;2023-09-19T14:43:57;2.77;;;0.80;;
6828;SDS011;17930;48.592;8.868;2023-09-19T14:46:24;1.20;;;1.10;;
6828;SDS011;17930;48.592;8.868;2023-09-19T14:48:52;0.97;;;0.93;;
6828;SDS011;17930;48.592;8.868;2023-09-19T14:51:19;1.67;;;1.20;;
6828;SDS011;17930;48.592;8.868;2023-09-19T14:53:46;1.93;;;1.33;;
6828;SDS011;17930;48.592;8.868;2023-09-19T14:56:13;1.73;;;0.97;;
6828;SDS011;17930;48.592;8.868;2023-09-19T14:58:43;1.60;;;1.00;;
6828;SDS011;17930;48.592;8.868;2023-09-19T15:01:10;1.97;;;0.97;;
6828;SDS011;17930;48.592;8.868;2023-09-19T15:03:38;1.27;;;1.17;;
6828;SDS011;17930;48.592;8.868;2023-09-19T15:06:08;2.87;;;1.20;;
6828;SDS011;17930;48.592;8.868;2023-09-19T15:08:39;1.57;;;0.90;;
6828;SDS011;17930;48.592;8.868;2023-09-19T15:11:12;1.23;;;1.07;;
6828;SDS011;17930;48.592;8.868;2023-09-19T15:13:42;1.10;;;1.00;;
6828;SDS011;17930;48.592;8.868;2023-09-19T15:16:09;2.57;;;1.10;;
6828;SDS011;17930;48.592;8.868;2023-09-19T15:18:39;2.80;;;1.17;;
6828;SDS011;17930;48.592;8.868;2023-09-19T15:21:09;1.33;;;1.00;;
6828;SDS011;17930;48.592;8.868;2023-09-19T15:23:40;1.77;;;1.10;;
6828;SDS011;17930;48.592;8.868;2023-09-19T15:26:09;1.10;;;0.90;;
6828;SDS011;17930;48.592;8.868;2023-09-19T15:28:37;3.47;;;1.10;;
6828;SDS011;17930;48.592;8.868;2023-09-19T15:31:05;1.93;;;1.07;;
6828;SDS011;17930;48.592;8.868;2023-09-19T15:33:33;1.57;;;1.10;;
6828;SDS011;17930;48.592;8.868;2023-09-19T15:36:01;1.97;;;0.90;;
6828;SDS011;17930;48.592;8.868;2023-09-19T15:41:24;2.27;;;1.00;;
6828;SDS011;17930;48.592;8.868;2023-09-19T15:43:51;1.47;;;0.97;;
6828;SDS011;17930;48.592;8.868;2023-09-19T15:46:18;1.87;;;1.23;;